createdAt,value
2022-09-01T00:00:22.900Z,0.00
2022-09-01T00:01:22.932Z,0.00
2022-09-01T00:02:24.423Z,0.00
2022-09-01T00:03:22.972Z,0.00
2022-09-01T00:04:23.044Z,0.00
2022-09-01T00:05:23.435Z,0.00
2022-09-01T00:06:23.055Z,0.00
2022-09-01T00:07:24.514Z,0.00
2022-09-01T00:08:23.112Z,0.00
2022-09-01T00:09:23.151Z,0.00
2022-09-01T00:11:23.414Z,0.00
2022-09-01T00:12:24.642Z,0.00
2022-09-01T00:13:23.265Z,0.00
2022-09-01T00:14:29.463Z,0.00
2022-09-01T00:16:23.340Z,0.00
2022-09-01T00:17:23.371Z,0.00
2022-09-01T00:18:23.397Z,0.00
2022-09-01T00:19:23.427Z,0.00
2022-09-01T00:21:23.495Z,0.00
2022-09-01T00:23:23.757Z,0.00
2022-09-01T00:25:23.916Z,0.00
2022-09-01T00:26:24.247Z,0.00
2022-09-01T00:27:30.524Z,0.00
2022-09-01T00:28:23.702Z,0.00
2022-09-01T00:29:23.725Z,0.00
2022-09-01T00:30:23.757Z,0.00
2022-09-01T00:31:23.851Z,0.00
2022-09-01T00:32:23.813Z,0.00
2022-09-01T00:33:23.837Z,0.00
2022-09-01T00:35:24.101Z,0.00
2022-09-01T00:36:23.925Z,0.00
2022-09-01T00:37:23.943Z,0.00
2022-09-01T00:38:23.981Z,0.00
2022-09-01T00:39:23.999Z,0.00
2022-09-01T00:40:24.112Z,0.00
2022-09-01T00:41:24.070Z,0.00
2022-09-01T00:42:24.085Z,0.00
2022-09-01T00:43:24.137Z,0.00
2022-09-01T00:44:24.397Z,0.00
2022-09-01T00:45:24.388Z,0.00
2022-09-01T00:46:24.233Z,0.00
2022-09-01T00:47:24.249Z,0.00
2022-09-01T00:48:24.576Z,0.00
2022-09-01T00:49:24.301Z,0.00
2022-09-01T00:50:24.314Z,0.00
2022-09-01T00:51:24.547Z,0.00
2022-09-01T00:53:24.413Z,0.00
2022-09-01T00:54:24.576Z,0.00
2022-09-01T00:56:24.697Z,0.00
2022-09-01T00:57:24.522Z,0.00
2022-09-01T00:58:24.553Z,0.00
2022-09-01T00:59:24.583Z,0.00
2022-09-01T01:00:24.607Z,0.00
2022-09-01T01:01:24.688Z,0.00
2022-09-01T01:02:24.751Z,0.00
2022-09-01T01:03:24.683Z,0.00
2022-09-01T01:04:24.723Z,0.00
2022-09-01T01:05:24.738Z,0.00
2022-09-01T01:06:24.781Z,0.00
2022-09-01T01:07:25.000Z,0.00
2022-09-01T01:08:24.835Z,0.00
2022-09-01T01:09:24.852Z,0.00
2022-09-01T01:10:24.886Z,0.00
2022-09-01T01:11:24.910Z,0.00
2022-09-01T01:12:24.940Z,0.00
2022-09-01T01:14:25.012Z,0.00
2022-09-01T01:15:25.238Z,0.00
2022-09-01T01:16:25.529Z,0.00
2022-09-01T01:17:25.398Z,0.00
2022-09-01T01:18:25.320Z,0.00
2022-09-01T01:19:25.150Z,0.00
2022-09-01T01:20:25.179Z,0.00
2022-09-01T01:21:25.194Z,0.00
2022-09-01T01:22:25.427Z,0.00
2022-09-01T01:23:25.262Z,0.00
2022-09-01T01:24:25.293Z,0.00
2022-09-01T01:26:25.345Z,0.00
2022-09-01T01:27:25.581Z,0.00
2022-09-01T01:28:25.402Z,0.00
2022-09-01T01:30:25.465Z,0.00
2022-09-01T01:31:28.111Z,0.00
2022-09-01T01:32:25.508Z,0.00
2022-09-01T01:33:25.559Z,0.00
2022-09-01T01:34:25.967Z,0.00
2022-09-01T01:42:28.408Z,0.00
2022-09-01T01:43:26.497Z,0.00
2022-09-01T01:44:25.853Z,0.00
2022-09-01T01:46:26.779Z,0.00
2022-09-01T01:48:25.957Z,0.00
2022-09-01T01:53:26.114Z,0.00
2022-09-01T01:54:26.136Z,0.00
2022-09-01T01:55:27.569Z,0.00
2022-09-01T01:56:26.181Z,0.00
2022-09-01T01:57:26.226Z,0.00
2022-09-01T01:58:26.249Z,0.00
2022-09-01T01:59:26.281Z,0.00
2022-09-01T02:00:30.464Z,0.00
2022-09-01T02:01:26.359Z,0.00
2022-09-01T02:02:26.434Z,0.00
2022-09-01T02:03:26.379Z,0.00
2022-09-01T02:05:26.446Z,0.00
2022-09-01T02:06:26.474Z,0.00
2022-09-01T02:07:26.910Z,0.00
2022-09-01T02:09:24.106Z,0.00
2022-09-01T02:10:24.135Z,0.00
2022-09-01T02:11:24.168Z,0.00
2022-09-01T02:12:24.192Z,0.00
2022-09-01T02:13:24.218Z,0.00
2022-09-01T02:14:24.251Z,0.00
2022-09-01T02:15:24.274Z,0.00
2022-09-01T02:16:24.404Z,0.00
2022-09-01T02:17:24.333Z,0.00
2022-09-01T02:18:24.362Z,0.00
2022-09-01T02:19:24.388Z,0.00
2022-09-01T02:20:27.037Z,0.00
2022-09-01T02:22:06.994Z,0.00
2022-09-01T02:23:07.023Z,0.00
2022-09-01T02:24:07.052Z,0.00
2022-09-01T02:25:07.080Z,0.00
2022-09-01T02:26:22.298Z,0.00
2022-09-01T02:27:07.138Z,0.00
2022-09-01T02:28:07.166Z,0.00
2022-09-01T02:29:07.193Z,0.00
2022-09-01T02:30:07.222Z,0.00
2022-09-01T02:31:07.316Z,0.00
2022-09-01T02:32:07.277Z,0.00
2022-09-01T02:33:10.193Z,0.00
2022-09-01T02:34:07.335Z,0.00
2022-09-01T02:35:07.364Z,0.00
2022-09-01T02:36:07.393Z,0.00
2022-09-01T02:37:07.420Z,0.00
2022-09-01T02:38:07.450Z,0.00
2022-09-01T02:39:08.119Z,0.00
2022-09-01T02:40:07.554Z,0.00
2022-09-01T02:41:07.540Z,0.00
2022-09-01T02:42:07.562Z,0.00
2022-09-01T02:43:07.590Z,0.00
2022-09-01T02:44:07.621Z,0.00
2022-09-01T02:45:07.648Z,0.00
2022-09-01T02:46:07.753Z,0.00
2022-09-01T02:47:07.705Z,0.00
2022-09-01T02:48:07.738Z,0.00
2022-09-01T02:49:07.778Z,0.00
2022-09-01T02:50:07.791Z,0.00
2022-09-01T02:51:07.819Z,0.00
2022-09-01T02:52:07.850Z,0.00
2022-09-01T02:53:07.876Z,0.00
2022-09-01T02:54:07.907Z,0.00
2022-09-01T02:55:07.933Z,0.00
2022-09-01T02:56:07.964Z,0.00
2022-09-01T02:57:07.992Z,0.00
2022-09-01T02:58:08.020Z,0.00
2022-09-01T02:59:08.046Z,0.00
2022-09-01T03:00:08.075Z,0.00
2022-09-01T03:01:08.146Z,0.00
2022-09-01T03:02:08.738Z,0.00
2022-09-01T03:03:08.159Z,0.00
2022-09-01T03:04:08.190Z,0.00
2022-09-01T03:05:08.281Z,0.00
2022-09-01T03:06:08.243Z,0.00
2022-09-01T03:07:08.274Z,0.00
2022-09-01T03:08:08.302Z,0.00
2022-09-01T03:09:08.328Z,0.00
2022-09-01T03:10:55.921Z,0.00
2022-09-01T03:11:55.952Z,0.00
2022-09-01T03:12:55.975Z,0.00
2022-09-01T03:13:56.007Z,0.00
2022-09-01T03:14:56.036Z,0.00
2022-09-01T03:15:56.065Z,0.00
2022-09-01T03:16:56.123Z,0.00
2022-09-01T03:17:56.120Z,0.00
2022-09-01T03:18:56.151Z,0.00
2022-09-01T03:19:56.179Z,0.00
2022-09-01T03:20:56.206Z,0.00
2022-09-01T03:21:56.241Z,0.00
2022-09-01T03:22:56.261Z,0.00
2022-09-01T03:23:56.291Z,0.00
2022-09-01T03:24:56.319Z,0.00
2022-09-01T03:25:56.351Z,0.00
2022-09-01T03:26:56.376Z,0.00
2022-09-01T03:27:56.408Z,0.00
2022-09-01T03:28:56.433Z,0.00
2022-09-01T03:29:56.463Z,0.00
2022-09-01T03:30:56.489Z,0.00
2022-09-01T03:31:56.794Z,0.00
2022-09-01T03:32:56.545Z,0.00
2022-09-01T03:33:56.577Z,0.00
2022-09-01T03:34:56.602Z,0.00
2022-09-01T03:35:56.637Z,0.00
2022-09-01T03:36:56.660Z,0.00
2022-09-01T03:37:56.691Z,0.00
2022-09-01T03:38:56.717Z,0.00
2022-09-01T03:39:58.126Z,0.00
2022-09-01T03:40:56.770Z,0.00
2022-09-01T03:41:56.800Z,0.00
2022-09-01T03:43:56.868Z,0.00
2022-09-01T03:44:57.205Z,0.00
2022-09-01T03:45:56.942Z,0.00
2022-09-01T03:46:56.958Z,0.00
2022-09-01T03:47:56.967Z,0.00
2022-09-01T03:48:56.999Z,0.00
2022-09-01T03:49:57.027Z,0.00
2022-09-01T03:51:44.615Z,0.00
2022-09-01T03:52:44.645Z,0.00
2022-09-01T03:53:44.681Z,0.00
2022-09-01T03:54:44.716Z,0.00
2022-09-01T03:55:44.932Z,0.00
2022-09-01T03:56:45.080Z,0.00
2022-09-01T03:57:44.794Z,0.00
2022-09-01T03:58:44.816Z,0.00
2022-09-01T03:59:44.843Z,0.00
2022-09-01T04:00:48.709Z,0.00
2022-09-01T04:01:44.898Z,0.00
2022-09-01T04:02:44.928Z,0.00
2022-09-01T04:03:44.965Z,0.00
2022-09-01T04:04:45.197Z,0.00
2022-09-01T04:05:45.023Z,0.00
2022-09-01T04:06:45.042Z,0.00
2022-09-01T04:07:45.067Z,0.00
2022-09-01T04:08:45.096Z,4.00
2022-09-01T04:09:45.123Z,4.00
2022-09-01T04:10:45.153Z,0.00
2022-09-01T04:11:46.039Z,4.00
2022-09-01T04:12:45.208Z,4.00
2022-09-01T04:13:45.236Z,4.00
2022-09-01T04:14:45.268Z,4.00
2022-09-01T04:15:45.291Z,8.00
2022-09-01T04:16:45.439Z,8.00
2022-09-01T04:17:45.347Z,8.00
2022-09-01T04:18:45.376Z,8.00
2022-09-01T04:19:45.404Z,12.00
2022-09-01T04:20:45.439Z,12.00
2022-09-01T04:21:45.459Z,12.00
2022-09-01T04:22:45.489Z,16.00
2022-09-01T04:23:45.515Z,20.00
2022-09-01T04:24:45.782Z,24.00
2022-09-01T04:25:45.571Z,28.00
2022-09-01T04:26:45.600Z,32.00
2022-09-01T04:27:45.633Z,40.00
2022-09-01T04:28:45.657Z,44.00
2022-09-01T04:29:45.683Z,52.00
2022-09-01T04:30:45.716Z,60.00
2022-09-01T04:31:45.795Z,68.00
2022-09-01T04:32:45.770Z,80.00
2022-09-01T04:33:45.795Z,92.00
2022-09-01T04:34:45.824Z,104.00
2022-09-01T04:35:45.849Z,120.00
2022-09-01T04:36:45.882Z,136.00
2022-09-01T04:37:45.905Z,152.00
2022-09-01T04:38:45.936Z,168.00
2022-09-01T04:39:45.962Z,184.00
2022-09-01T04:40:46.102Z,204.00
2022-09-01T04:41:46.018Z,228.00
2022-09-01T04:42:46.048Z,248.00
2022-09-01T04:43:46.073Z,276.00
2022-09-01T04:44:46.103Z,300.00
2022-09-01T04:45:46.158Z,324.00
2022-09-01T04:46:46.160Z,352.00
2022-09-01T04:47:46.185Z,384.00
2022-09-01T04:48:46.222Z,420.00
2022-09-01T04:49:46.240Z,456.00
2022-09-01T04:50:46.271Z,492.00
2022-09-01T04:51:48.962Z,536.00
2022-09-01T04:52:46.328Z,580.00
2022-09-01T04:53:46.354Z,628.00
2022-09-01T04:54:46.382Z,684.00
2022-09-01T04:55:46.407Z,732.00
2022-09-01T04:56:46.439Z,792.00
2022-09-01T04:57:46.463Z,852.00
2022-09-01T04:58:46.492Z,916.00
2022-09-01T04:59:46.519Z,988.00
2022-09-01T05:00:46.614Z,1072.00
2022-09-01T05:01:46.693Z,1156.00
2022-09-01T05:02:46.604Z,1240.00
2022-09-01T05:03:46.630Z,1328.00
2022-09-01T05:04:46.661Z,1412.00
2022-09-01T05:05:46.685Z,1488.00
2022-09-01T05:06:46.717Z,1572.00
2022-09-01T05:07:46.743Z,1660.00
2022-09-01T05:08:46.771Z,1764.00
2022-09-01T05:09:46.798Z,1864.00
2022-09-01T05:10:46.828Z,1952.00
2022-09-01T05:11:46.855Z,2024.00
2022-09-01T05:12:46.884Z,2096.00
2022-09-01T05:13:46.909Z,2164.00
2022-09-01T05:14:46.940Z,2216.00
2022-09-01T05:15:46.967Z,2232.00
2022-09-01T05:16:47.121Z,2244.00
2022-09-01T05:17:47.024Z,2272.00
2022-09-01T05:18:47.051Z,2312.00
2022-09-01T05:19:47.080Z,2356.00
2022-09-01T05:20:47.108Z,2412.00
2022-09-01T05:21:47.134Z,2468.00
2022-09-01T05:22:47.166Z,2520.00
2022-09-01T05:23:47.189Z,2572.00
2022-09-01T05:24:47.220Z,2624.00
2022-09-01T05:25:47.246Z,2680.00
2022-09-01T05:26:47.277Z,2744.00
2022-09-01T05:27:47.302Z,2816.00
2022-09-01T05:28:47.332Z,2904.00
2022-09-01T05:29:47.363Z,3084.00
2022-09-01T05:30:47.407Z,3016.00
2022-09-01T05:31:50.383Z,3008.00
2022-09-01T05:32:47.445Z,3008.00
2022-09-01T05:33:47.472Z,3044.00
2022-09-01T05:34:47.503Z,3076.00
2022-09-01T05:35:47.528Z,3108.00
2022-09-01T05:36:47.557Z,3164.00
2022-09-01T05:37:47.582Z,3192.00
2022-09-01T05:38:47.614Z,3180.00
2022-09-01T05:39:47.639Z,3416.00
2022-09-01T05:40:47.736Z,3484.00
2022-09-01T05:41:47.694Z,3784.00
2022-09-01T05:42:47.725Z,4760.00
2022-09-01T05:43:47.752Z,4992.00
2022-09-01T05:44:47.784Z,4268.00
2022-09-01T05:46:05.643Z,3664.00
2022-09-01T05:46:47.903Z,3740.00
2022-09-01T05:47:47.864Z,4076.00
2022-09-01T05:48:47.895Z,6804.00
2022-09-01T05:49:47.921Z,9668.00
2022-09-01T05:50:47.952Z,8508.00
2022-09-01T05:51:50.886Z,8568.00
2022-09-01T05:52:48.010Z,7168.00
2022-09-01T05:53:48.035Z,5788.00
2022-09-01T05:54:48.072Z,7128.00
2022-09-01T05:55:48.091Z,8800.00
2022-09-01T05:56:48.125Z,17216.00
2022-09-01T05:57:48.152Z,16032.00
2022-09-01T05:59:48.206Z,6488.00
2022-09-01T06:00:48.235Z,7760.00
2022-09-01T06:01:50.459Z,6740.00
2022-09-01T06:02:48.488Z,10308.00
2022-09-01T06:04:30.871Z,18208.00
2022-09-01T06:05:30.903Z,22368.00
2022-09-01T06:06:43.713Z,14112.00
2022-09-01T06:07:30.959Z,8828.00
2022-09-01T06:08:30.986Z,5420.00
2022-09-01T06:09:31.018Z,11540.00
2022-09-01T06:10:31.047Z,19776.00
2022-09-01T06:11:31.076Z,10296.00
2022-09-01T06:12:34.129Z,5080.00
2022-09-01T06:13:31.134Z,5728.00
2022-09-01T06:14:31.162Z,5264.00
2022-09-01T06:15:31.192Z,5356.00
2022-09-01T06:16:31.330Z,6852.00
2022-09-01T06:17:34.673Z,10292.00
2022-09-01T06:18:31.329Z,8440.00
2022-09-01T06:19:36.186Z,7436.00
2022-09-01T06:20:31.336Z,6332.00
2022-09-01T06:21:31.368Z,4764.00
2022-09-01T06:22:31.394Z,5396.00
2022-09-01T06:23:31.426Z,7124.00
2022-09-01T06:24:31.453Z,13256.00
2022-09-01T06:25:31.502Z,13804.00
2022-09-01T06:26:31.513Z,11872.00
2022-09-01T06:27:31.542Z,7896.00
2022-09-01T06:28:31.571Z,4748.00
2022-09-01T06:29:31.602Z,4704.00
2022-09-01T06:30:31.630Z,4720.00
2022-09-01T06:31:31.733Z,4740.00
2022-09-01T06:32:31.688Z,4748.00
2022-09-01T06:33:31.720Z,4756.00
2022-09-01T06:34:31.747Z,4768.00
2022-09-01T06:35:31.778Z,4772.00
2022-09-01T06:36:34.920Z,4784.00
2022-09-01T06:37:31.838Z,4804.00
2022-09-01T06:38:31.867Z,4836.00
2022-09-01T06:39:31.896Z,4868.00
2022-09-01T06:40:31.981Z,4896.00
2022-09-01T06:41:31.956Z,4924.00
2022-09-01T06:42:31.982Z,4940.00
2022-09-01T06:43:32.014Z,4956.00
2022-09-01T06:44:32.041Z,4976.00
2022-09-01T06:45:32.070Z,5000.00
2022-09-01T06:46:32.844Z,5032.00
2022-09-01T06:47:32.130Z,5056.00
2022-09-01T06:48:32.158Z,5088.00
2022-09-01T06:49:32.189Z,5116.00
2022-09-01T06:51:32.250Z,5204.00
2022-09-01T06:53:32.097Z,5240.00
2022-09-01T06:53:32.833Z,5312.00
2022-09-01T06:54:32.336Z,5364.00
2022-09-01T06:55:32.367Z,5392.00
2022-09-01T06:56:32.589Z,5416.00
2022-09-01T06:58:32.465Z,5468.00
2022-09-01T07:01:32.891Z,5536.00
2022-09-01T07:02:33.830Z,5556.00
2022-09-01T07:04:32.648Z,5616.00
2022-09-01T07:08:33.178Z,5736.00
2022-09-01T07:09:47.197Z,5764.00
2022-09-01T07:10:33.443Z,5788.00
2022-09-01T07:17:33.667Z,5960.00
2022-09-01T07:23:46.198Z,6080.00
2022-09-01T07:26:00.344Z,6132.00
2022-09-01T07:26:33.336Z,6168.00
2022-09-01T07:27:36.122Z,6192.00
2022-09-01T07:29:33.435Z,6292.00
2022-09-01T07:30:33.470Z,6340.00
2022-09-01T07:31:49.482Z,6388.00
2022-09-01T07:32:48.972Z,6452.00
2022-09-01T07:33:53.899Z,6520.00
2022-09-01T07:35:33.628Z,6684.00
2022-09-01T07:39:48.443Z,7596.00
2022-09-01T07:42:55.812Z,5492.00
2022-09-01T07:42:56.765Z,6232.00
2022-09-01T07:44:33.939Z,11544.00
2022-09-01T07:45:33.968Z,12564.00
2022-09-01T07:46:37.511Z,13852.00
2022-09-01T07:48:36.460Z,16704.00
2022-09-01T07:49:52.608Z,18048.00
2022-09-01T07:51:35.077Z,18592.00
2022-09-01T07:51:36.061Z,19552.00
2022-09-01T07:54:34.279Z,24288.00
2022-09-01T07:55:34.326Z,25920.00
2022-09-01T07:56:39.833Z,28064.00
2022-09-01T07:57:34.370Z,31168.00
2022-09-01T07:58:34.405Z,32864.00
2022-09-01T07:59:34.438Z,34720.00
2022-09-01T08:00:34.472Z,39264.00
2022-09-01T08:01:34.571Z,41120.00
2022-09-01T08:02:34.584Z,41952.00
2022-09-01T08:03:35.186Z,43648.00
2022-09-01T08:04:34.640Z,44672.00
2022-09-01T08:05:34.643Z,44928.00
2022-09-01T08:07:51.633Z,49792.00
2022-09-01T08:08:35.879Z,52992.00
2022-09-01T08:09:37.220Z,54944.00
2022-09-01T08:10:36.856Z,56224.00
2022-09-01T08:12:28.874Z,57536.00
2022-09-01T08:14:22.684Z,60992.00
2022-09-01T08:15:40.448Z,63488.00
2022-09-01T08:19:22.862Z,64768.00
2022-09-01T08:20:22.693Z,68960.00
2022-09-01T08:23:49.180Z,68864.00
2022-09-01T08:24:49.218Z,67808.00
2022-09-01T08:25:49.252Z,65792.00
2022-09-01T08:27:49.324Z,71200.00
2022-09-01T08:28:55.824Z,70976.00
2022-09-01T08:30:52.776Z,43136.00
2022-09-01T08:31:53.578Z,29024.00
2022-09-01T08:32:49.499Z,25888.00
2022-09-01T08:33:49.938Z,24960.00
2022-09-01T08:37:32.204Z,23264.00
2022-09-01T08:38:32.243Z,23008.00
2022-09-01T08:39:32.279Z,22688.00
2022-09-01T08:41:05.576Z,22496.00
2022-09-01T08:42:14.923Z,22112.00
2022-09-01T08:43:19.511Z,22016.00
2022-09-01T08:44:14.988Z,22048.00
2022-09-01T08:45:48.238Z,22016.00
2022-09-01T08:46:15.111Z,21888.00
2022-09-01T08:47:15.692Z,21920.00
2022-09-01T08:55:49.479Z,24832.00
2022-09-01T08:56:15.446Z,25600.00
2022-09-01T08:57:15.484Z,25824.00
2022-09-01T08:59:16.082Z,33600.00
2022-09-01T09:00:15.951Z,37184.00
2022-09-01T09:01:17.758Z,42816.00
2022-09-01T09:05:16.101Z,41344.00
2022-09-01T09:06:15.828Z,37088.00
2022-09-01T09:07:15.865Z,33984.00
2022-09-01T09:08:15.904Z,33440.00
2022-09-01T09:10:15.978Z,37472.00
2022-09-01T09:11:16.018Z,37088.00
2022-09-01T09:12:16.518Z,33184.00
2022-09-01T09:13:16.163Z,31840.00
2022-09-01T09:14:16.146Z,35744.00
2022-09-01T09:16:17.282Z,36704.00
2022-09-01T09:19:16.364Z,29152.00
2022-09-01T09:20:16.584Z,29312.00
2022-09-01T09:53:03.161Z,40640.00
2022-09-01T10:12:04.772Z,6284.00
2022-09-01T10:13:04.605Z,6244.00
2022-09-01T10:15:05.533Z,6620.00
2022-09-01T10:19:01.650Z,12168.00
2022-09-01T10:20:01.885Z,12244.00
2022-09-01T10:21:01.984Z,8952.00
2022-09-01T10:22:01.755Z,11868.00
2022-09-01T10:23:03.668Z,11616.00
2022-09-01T10:24:17.864Z,11272.00
2022-09-01T10:25:01.856Z,11284.00
2022-09-01T10:28:49.593Z,7780.00
2022-09-01T10:29:49.967Z,11944.00
2022-09-01T10:30:42.987Z,12024.00
2022-09-01T10:31:42.977Z,12260.00
2022-09-01T10:32:50.773Z,12564.00
2022-09-01T10:33:42.997Z,12596.00
2022-09-01T10:34:43.029Z,12420.00
2022-09-01T10:35:43.066Z,12068.00
2022-09-01T10:36:47.056Z,12092.00
2022-09-01T10:37:43.338Z,11912.00
2022-09-01T10:38:50.560Z,11444.00
2022-09-01T11:00:34.795Z,6444.00
2022-09-01T11:01:11.217Z,8456.00
2022-09-01T11:02:25.018Z,8092.00
2022-09-01T11:04:07.776Z,7932.00
2022-09-01T11:05:07.792Z,8012.00
2022-09-01T11:06:14.892Z,8116.00
2022-09-01T11:11:27.058Z,7864.00
2022-09-01T11:12:29.886Z,7072.00
2022-09-01T11:13:27.527Z,7236.00
2022-09-01T11:14:27.180Z,6516.00
2022-09-01T11:15:27.193Z,6596.00
2022-09-01T11:16:46.688Z,8148.00
2022-09-01T11:17:27.285Z,8448.00
2022-09-01T11:18:27.555Z,6180.00
2022-09-01T11:19:27.477Z,6004.00
2022-09-01T11:20:27.365Z,6068.00
2022-09-01T11:21:27.397Z,8088.00
2022-09-01T11:22:27.434Z,8040.00
2022-09-01T11:23:27.907Z,8116.00
2022-09-01T11:24:27.538Z,8120.00
2022-09-01T11:25:38.835Z,6792.00
2022-09-01T11:26:27.569Z,6388.00
2022-09-01T11:27:27.606Z,6724.00
2022-09-01T11:28:27.638Z,7620.00
2022-09-01T11:29:27.670Z,8116.00
2022-09-01T11:30:27.702Z,8032.00
2022-09-01T11:31:27.862Z,6916.00
2022-09-01T11:32:27.772Z,6892.00
2022-09-01T11:33:27.804Z,6832.00
2022-09-01T11:34:30.474Z,7028.00
2022-09-01T11:35:27.870Z,7224.00
2022-09-01T11:36:27.905Z,7204.00
2022-09-01T11:37:31.975Z,7192.00
2022-09-01T11:38:27.970Z,7240.00
2022-09-01T11:39:28.000Z,8380.00
2022-09-01T11:40:32.652Z,8268.00
2022-09-01T11:41:28.068Z,6860.00
2022-09-01T11:42:28.101Z,6768.00
2022-09-01T11:44:01.345Z,6852.00
2022-09-01T11:44:28.171Z,6824.00
2022-09-01T11:46:01.449Z,6796.00
2022-09-01T11:46:28.238Z,6676.00
2022-09-01T11:47:28.468Z,6560.00
2022-09-01T11:49:10.853Z,6372.00
2022-09-01T11:50:10.886Z,6100.00
2022-09-01T11:51:14.702Z,5740.00
2022-09-01T11:52:10.950Z,5424.00
2022-09-01T11:53:10.982Z,5080.00
2022-09-01T11:54:11.016Z,5308.00
2022-09-01T11:55:11.049Z,4804.00
2022-09-01T11:56:11.083Z,4660.00
2022-09-01T11:57:11.114Z,4588.00
2022-09-01T12:02:20.489Z,4260.00
2022-09-01T12:03:20.984Z,4308.00
2022-09-01T12:04:20.431Z,4400.00
2022-09-01T12:05:20.465Z,4552.00
2022-09-01T12:06:20.496Z,4748.00
2022-09-01T12:07:20.538Z,4964.00
2022-09-01T12:08:22.960Z,5384.00
2022-09-01T12:09:20.596Z,5984.00
2022-09-01T12:10:20.624Z,7328.00
2022-09-01T12:12:20.692Z,6080.00
2022-09-01T12:13:20.792Z,5728.00
2022-09-01T12:14:20.756Z,5440.00
2022-09-01T12:15:20.788Z,5104.00
2022-09-01T12:16:20.822Z,5272.00
2022-09-01T12:17:21.015Z,4968.00
2022-09-01T12:18:20.934Z,5268.00
2022-09-01T12:19:20.964Z,4428.00
2022-09-01T12:20:24.311Z,4512.00
2022-09-01T12:21:20.980Z,5240.00
2022-09-01T12:22:21.012Z,4688.00
2022-09-01T12:23:21.151Z,5504.00
2022-09-01T12:24:21.079Z,5456.00
2022-09-01T12:25:21.109Z,4552.00
2022-09-01T12:26:21.145Z,4328.00
2022-09-01T12:27:21.171Z,4636.00
2022-09-01T12:28:21.206Z,4384.00
2022-09-01T12:29:21.236Z,5520.00
2022-09-01T12:30:21.270Z,5524.00
2022-09-01T12:31:21.355Z,4896.00
2022-09-01T12:32:21.367Z,4360.00
2022-09-01T12:33:23.370Z,4344.00
2022-09-01T12:34:21.399Z,4336.00
2022-09-01T12:35:21.433Z,4244.00
2022-09-01T12:36:21.466Z,4136.00
2022-09-01T12:37:21.493Z,4080.00
2022-09-01T12:38:21.759Z,4124.00
2022-09-01T12:39:21.607Z,4132.00
2022-09-01T12:40:21.610Z,4420.00
2022-09-01T12:42:21.653Z,4452.00
2022-09-01T12:43:22.025Z,4140.00
2022-09-01T12:44:21.919Z,4020.00
2022-09-01T12:46:21.863Z,3824.00
2022-09-01T12:47:21.814Z,3816.00
2022-09-01T12:48:21.845Z,3876.00
2022-09-01T12:49:21.878Z,4020.00
2022-09-01T12:50:21.908Z,4208.00
2022-09-01T12:52:21.974Z,4600.00
2022-09-01T12:53:22.228Z,4844.00
2022-09-01T12:54:22.036Z,5120.00
2022-09-01T12:56:22.100Z,5776.00
2022-09-01T13:07:21.439Z,8328.00
2022-09-01T13:08:21.458Z,7452.00
2022-09-01T13:09:21.486Z,8012.00
2022-09-01T13:10:22.785Z,7000.00
2022-09-01T13:11:21.551Z,6800.00
2022-09-01T13:12:21.585Z,7192.00
2022-09-01T13:13:21.858Z,6560.00
2022-09-01T13:14:21.649Z,6400.00
2022-09-01T13:15:21.679Z,6284.00
2022-09-01T13:16:21.758Z,6108.00
2022-09-01T13:17:21.745Z,5892.00
2022-09-01T13:18:21.979Z,5580.00
2022-09-01T13:19:27.703Z,5248.00
2022-09-01T13:20:21.841Z,5052.00
2022-09-01T13:21:21.871Z,5032.00
2022-09-01T13:22:21.905Z,5048.00
2022-09-01T13:23:22.083Z,5128.00
2022-09-01T13:33:23.402Z,5436.00
2022-09-01T13:34:24.247Z,5360.00
2022-09-01T13:35:22.332Z,5320.00
2022-09-01T13:38:22.415Z,5144.00
2022-09-01T13:39:22.994Z,5208.00
2022-09-01T13:40:22.538Z,5384.00
2022-09-01T13:41:22.511Z,5412.00
2022-09-01T13:42:22.837Z,5336.00
2022-09-01T13:43:22.775Z,5348.00
2022-09-01T13:44:22.609Z,5552.00
2022-09-01T13:45:22.658Z,5780.00
2022-09-01T13:46:22.671Z,6064.00
2022-09-01T13:47:30.566Z,6328.00
2022-09-01T13:48:22.737Z,6536.00
2022-09-01T13:50:24.223Z,6756.00
2022-09-01T13:51:22.834Z,6760.00
2022-09-01T13:52:22.898Z,6768.00
2022-09-01T13:53:22.892Z,6832.00
2022-09-01T13:54:22.925Z,6836.00
2022-09-01T13:55:22.980Z,6804.00
2022-09-01T13:56:23.010Z,6716.00
2022-09-01T13:57:23.053Z,6532.00
2022-09-01T13:58:23.080Z,6316.00
2022-09-01T13:59:23.115Z,6184.00
2022-09-01T14:01:10.987Z,6016.00
2022-09-01T14:02:10.905Z,5928.00
2022-09-01T14:03:10.928Z,5792.00
2022-09-01T14:04:10.986Z,5668.00
2022-09-01T14:05:10.993Z,5516.00
2022-09-01T14:06:11.026Z,5312.00
2022-09-01T14:07:11.260Z,5284.00
2022-09-01T14:08:11.090Z,6004.00
2022-09-01T14:09:13.465Z,5772.00
2022-09-01T14:10:11.155Z,5552.00
2022-09-01T14:11:53.735Z,4136.00
2022-09-01T14:12:53.770Z,3992.00
2022-09-01T14:13:53.804Z,3932.00
2022-09-01T14:15:53.893Z,4116.00
2022-09-01T14:16:53.900Z,3972.00
2022-09-01T14:17:53.930Z,3992.00
2022-09-01T14:18:53.963Z,4068.00
2022-09-01T14:19:53.993Z,4176.00
2022-09-01T14:20:54.028Z,4284.00
2022-09-01T14:21:54.057Z,4448.00
2022-09-01T14:22:54.092Z,4640.00
2022-09-01T14:23:54.209Z,4728.00
2022-09-01T14:24:54.158Z,4820.00
2022-09-01T14:25:54.183Z,5132.00
2022-09-01T14:26:54.215Z,6108.00
2022-09-01T14:27:54.247Z,6512.00
2022-09-01T14:28:54.481Z,6572.00
2022-09-01T14:29:54.931Z,6412.00
2022-09-01T14:31:33.836Z,6148.00
2022-09-01T14:32:33.871Z,6024.00
2022-09-01T14:33:33.901Z,5888.00
2022-09-01T14:34:33.934Z,5748.00
2022-09-01T14:35:34.273Z,5624.00
2022-09-01T14:36:34.000Z,5460.00
2022-09-01T14:37:34.029Z,5324.00
2022-09-01T14:38:34.061Z,5168.00
2022-09-01T14:39:34.095Z,5068.00
2022-09-01T14:40:34.172Z,4944.00
2022-09-01T14:41:34.157Z,4824.00
2022-09-01T14:42:34.192Z,4724.00
2022-09-01T14:43:34.224Z,4652.00
2022-09-01T14:44:34.256Z,4596.00
2022-09-01T14:45:34.300Z,4556.00
2022-09-01T14:46:34.651Z,4544.00
2022-09-01T14:47:34.351Z,4560.00
2022-09-01T14:48:34.384Z,4028.00
2022-09-01T14:49:34.415Z,3892.00
2022-09-01T14:50:34.448Z,4648.00
2022-09-01T14:52:34.517Z,4616.00
2022-09-01T14:53:34.546Z,4280.00
2022-09-01T14:54:34.579Z,4076.00
2022-09-01T14:55:34.609Z,4268.00
2022-09-01T14:56:34.643Z,4244.00
2022-09-01T14:57:37.007Z,4784.00
2022-09-01T14:58:34.708Z,4256.00
2022-09-01T14:59:34.737Z,4252.00
2022-09-01T15:00:34.822Z,4260.00
2022-09-01T15:02:22.369Z,4360.00
2022-09-01T15:03:23.000Z,4428.00
2022-09-01T15:04:22.432Z,4492.00
2022-09-01T15:05:22.467Z,5060.00
2022-09-01T15:06:22.501Z,4860.00
2022-09-01T15:07:22.537Z,4472.00
2022-09-01T15:08:23.903Z,4440.00
2022-09-01T15:09:22.609Z,4608.00
2022-09-01T15:10:24.689Z,4408.00
2022-09-01T15:18:22.888Z,3728.00
2022-09-01T15:19:22.916Z,3620.00
2022-09-01T15:20:22.949Z,3540.00
2022-09-01T15:21:22.980Z,3448.00
2022-09-01T15:22:23.010Z,3356.00
2022-09-01T15:23:23.046Z,3268.00
2022-09-01T15:24:23.072Z,3176.00
2022-09-01T15:25:23.120Z,3096.00
2022-09-01T15:26:23.147Z,3224.00
2022-09-01T15:27:23.170Z,3020.00
2022-09-01T15:28:23.200Z,3044.00
2022-09-01T15:29:23.233Z,3056.00
2022-09-01T15:30:23.263Z,3036.00
2022-09-01T15:31:32.643Z,2996.00
2022-09-01T15:32:27.928Z,2956.00
2022-09-01T15:33:23.361Z,2932.00
2022-09-01T15:34:23.390Z,2908.00
2022-09-01T15:35:23.429Z,2860.00
2022-09-01T15:36:23.454Z,2808.00
2022-09-01T15:37:23.493Z,2776.00
2022-09-01T15:38:28.374Z,2736.00
2022-09-01T15:39:23.550Z,2696.00
2022-09-01T15:40:23.605Z,2668.00
2022-09-01T15:41:23.614Z,2632.00
2022-09-01T15:42:23.644Z,2588.00
2022-09-01T15:43:23.678Z,2552.00
2022-09-01T15:44:23.712Z,2528.00
2022-09-01T15:45:23.740Z,2492.00
2022-09-01T15:46:23.835Z,2448.00
2022-09-01T15:47:23.804Z,2416.00
2022-09-01T15:48:23.842Z,2388.00
2022-09-01T15:49:23.868Z,2364.00
2022-09-01T15:50:23.906Z,2336.00
2022-09-01T15:51:23.942Z,2300.00
2022-09-01T15:52:23.959Z,2272.00
2022-09-01T15:53:24.409Z,2244.00
2022-09-01T15:54:27.131Z,2232.00
2022-09-01T15:57:24.131Z,2256.00
2022-09-01T16:00:06.735Z,2260.00
2022-09-01T16:01:06.812Z,2260.00
2022-09-01T16:02:06.903Z,2264.00
2022-09-01T16:03:06.831Z,2260.00
2022-09-01T16:04:06.861Z,2252.00
2022-09-01T16:05:06.897Z,2248.00